sensor_id;sensor_type;location;lat;lon;timestamp;temperature;humidity
62555;DHT22;48610;52.144;8.624;2024-01-25T00:01:41;9.80;99.90
62555;DHT22;48610;52.144;8.624;2024-01-25T00:04:41;9.80;99.90
62555;DHT22;48610;52.144;8.624;2024-01-25T00:07:46;9.80;99.90
62555;DHT22;48610;52.144;8.624;2024-01-25T00:10:47;9.80;99.90
62555;DHT22;48610;52.144;8.624;2024-01-25T00:13:47;9.80;99.90
62555;DHT22;48610;52.144;8.624;2024-01-25T00:16:48;9.80;99.90
62555;DHT22;48610;52.144;8.624;2024-01-25T00:19:48;9.80;99.90
62555;DHT22;48610;52.144;8.624;2024-01-25T00:22:49;9.70;99.90
62555;DHT22;48610;52.144;8.624;2024-01-25T00:25:49;9.80;99.90
62555;DHT22;48610;52.144;8.624;2024-01-25T00:28:50;9.70;99.90
62555;DHT22;48610;52.144;8.624;2024-01-25T00:31:51;9.60;99.90
62555;DHT22;48610;52.144;8.624;2024-01-25T00:34:51;9.60;99.90
62555;DHT22;48610;52.144;8.624;2024-01-25T00:37:52;9.50;99.90
62555;DHT22;48610;52.144;8.624;2024-01-25T00:40:53;9.50;99.90
62555;DHT22;48610;52.144;8.624;2024-01-25T00:43:54;9.40;99.90
62555;DHT22;48610;52.144;8.624;2024-01-25T00:46:55;9.30;99.90
62555;DHT22;48610;52.144;8.624;2024-01-25T00:49:55;9.40;99.90
62555;DHT22;48610;52.144;8.624;2024-01-25T00:52:57;9.40;99.90
62555;DHT22;48610;52.144;8.624;2024-01-25T00:55:58;9.60;99.90
62555;DHT22;48610;52.144;8.624;2024-01-25T00:58:59;9.50;99.90
62555;DHT22;48610;52.144;8.624;2024-01-25T01:02:01;9.50;99.90
62555;DHT22;48610;52.144;8.624;2024-01-25T01:05:03;9.50;99.90
62555;DHT22;48610;52.144;8.624;2024-01-25T01:08:04;9.50;99.90
62555;DHT22;48610;52.144;8.624;2024-01-25T01:11:05;9.50;99.90
62555;DHT22;48610;52.144;8.624;2024-01-25T01:14:05;9.50;99.90
62555;DHT22;48610;52.144;8.624;2024-01-25T01:17:06;9.40;99.90
62555;DHT22;48610;52.144;8.624;2024-01-25T01:20:06;9.50;99.90
62555;DHT22;48610;52.144;8.624;2024-01-25T01:23:07;9.50;99.90
62555;DHT22;48610;52.144;8.624;2024-01-25T01:26:08;9.50;99.90
62555;DHT22;48610;52.144;8.624;2024-01-25T01:29:08;9.50;99.90
62555;DHT22;48610;52.144;8.624;2024-01-25T01:32:09;9.50;99.90
62555;DHT22;48610;52.144;8.624;2024-01-25T01:35:09;9.50;99.90
62555;DHT22;48610;52.144;8.624;2024-01-25T01:38:10;9.60;99.90
62555;DHT22;48610;52.144;8.624;2024-01-25T01:41:11;9.70;99.90
62555;DHT22;48610;52.144;8.624;2024-01-25T01:44:13;9.70;99.90
62555;DHT22;48610;52.144;8.624;2024-01-25T01:47:13;9.60;99.90
62555;DHT22;48610;52.144;8.624;2024-01-25T01:50:14;9.40;99.90
62555;DHT22;48610;52.144;8.624;2024-01-25T01:53:15;9.60;99.90
62555;DHT22;48610;52.144;8.624;2024-01-25T01:56:16;9.60;99.90
62555;DHT22;48610;52.144;8.624;2024-01-25T01:59:17;9.60;99.90
62555;DHT22;48610;52.144;8.624;2024-01-25T02:02:18;9.70;99.90
62555;DHT22;48610;52.144;8.624;2024-01-25T02:05:18;9.60;99.90
62555;DHT22;48610;52.144;8.624;2024-01-25T02:08:19;9.40;99.90
62555;DHT22;48610;52.144;8.624;2024-01-25T02:11:20;9.30;99.90
62555;DHT22;48610;52.144;8.624;2024-01-25T02:14:20;9.30;99.90
62555;DHT22;48610;52.144;8.624;2024-01-25T02:17:21;9.30;99.90
62555;DHT22;48610;52.144;8.624;2024-01-25T02:20:22;9.30;99.90
62555;DHT22;48610;52.144;8.624;2024-01-25T02:23:22;9.50;99.90
62555;DHT22;48610;52.144;8.624;2024-01-25T02:26:23;9.60;99.90
62555;DHT22;48610;52.144;8.624;2024-01-25T02:29:23;9.70;99.90
62555;DHT22;48610;52.144;8.624;2024-01-25T02:32:24;9.70;99.90
62555;DHT22;48610;52.144;8.624;2024-01-25T02:35:24;9.60;99.90
62555;DHT22;48610;52.144;8.624;2024-01-25T02:38:25;9.60;99.90
62555;DHT22;48610;52.144;8.624;2024-01-25T02:41:25;9.50;99.90
62555;DHT22;48610;52.144;8.624;2024-01-25T02:44:29;9.50;99.90
62555;DHT22;48610;52.144;8.624;2024-01-25T02:47:29;9.30;99.90
62555;DHT22;48610;52.144;8.624;2024-01-25T02:50:30;9.30;99.90
62555;DHT22;48610;52.144;8.624;2024-01-25T02:53:30;9.30;99.90
62555;DHT22;48610;52.144;8.624;2024-01-25T02:56:31;9.40;99.90
62555;DHT22;48610;52.144;8.624;2024-01-25T02:59:35;9.40;99.90
62555;DHT22;48610;52.144;8.624;2024-01-25T03:02:35;9.50;99.90
62555;DHT22;48610;52.144;8.624;2024-01-25T03:05:36;9.30;99.90
62555;DHT22;48610;52.144;8.624;2024-01-25T03:08:36;9.30;99.90
62555;DHT22;48610;52.144;8.624;2024-01-25T03:11:37;9.40;99.90
62555;DHT22;48610;52.144;8.624;2024-01-25T03:14:37;9.40;99.90
62555;DHT22;48610;52.144;8.624;2024-01-25T03:17:38;9.40;99.90
62555;DHT22;48610;52.144;8.624;2024-01-25T03:20:38;9.40;99.90
62555;DHT22;48610;52.144;8.624;2024-01-25T03:23:39;9.20;99.90
62555;DHT22;48610;52.144;8.624;2024-01-25T03:26:40;9.20;99.90
62555;DHT22;48610;52.144;8.624;2024-01-25T03:29:41;9.30;99.90
62555;DHT22;48610;52.144;8.624;2024-01-25T03:32:42;9.30;99.90
62555;DHT22;48610;52.144;8.624;2024-01-25T03:35:43;9.30;99.90
62555;DHT22;48610;52.144;8.624;2024-01-25T03:38:44;9.20;99.90
62555;DHT22;48610;52.144;8.624;2024-01-25T03:41:44;9.40;99.90
62555;DHT22;48610;52.144;8.624;2024-01-25T03:44:45;9.30;99.90
62555;DHT22;48610;52.144;8.624;2024-01-25T03:47:46;9.10;99.90
62555;DHT22;48610;52.144;8.624;2024-01-25T03:50:46;9.10;99.90
62555;DHT22;48610;52.144;8.624;2024-01-25T03:53:47;9.10;99.90
62555;DHT22;48610;52.144;8.624;2024-01-25T03:56:48;9.20;99.90
62555;DHT22;48610;52.144;8.624;2024-01-25T03:59:48;9.20;99.90
62555;DHT22;48610;52.144;8.624;2024-01-25T04:02:49;9.00;99.90
62555;DHT22;48610;52.144;8.624;2024-01-25T04:05:49;8.90;99.90
62555;DHT22;48610;52.144;8.624;2024-01-25T04:08:50;8.90;99.90
62555;DHT22;48610;52.144;8.624;2024-01-25T04:11:50;8.90;99.90
62555;DHT22;48610;52.144;8.624;2024-01-25T04:14:51;8.80;99.90
62555;DHT22;48610;52.144;8.624;2024-01-25T04:17:52;8.80;99.90
62555;DHT22;48610;52.144;8.624;2024-01-25T04:20:53;8.70;99.90
62555;DHT22;48610;52.144;8.624;2024-01-25T04:23:54;8.80;99.90
62555;DHT22;48610;52.144;8.624;2024-01-25T04:26:54;8.80;99.90
62555;DHT22;48610;52.144;8.624;2024-01-25T04:29:55;8.80;99.90
62555;DHT22;48610;52.144;8.624;2024-01-25T04:32:55;8.80;99.90
62555;DHT22;48610;52.144;8.624;2024-01-25T04:35:56;8.70;99.90
62555;DHT22;48610;52.144;8.624;2024-01-25T04:38:56;8.70;99.90
62555;DHT22;48610;52.144;8.624;2024-01-25T04:41:57;8.60;99.90
62555;DHT22;48610;52.144;8.624;2024-01-25T04:44:57;8.60;99.90
62555;DHT22;48610;52.144;8.624;2024-01-25T04:47:58;8.60;99.90
62555;DHT22;48610;52.144;8.624;2024-01-25T04:50:58;8.50;99.90
62555;DHT22;48610;52.144;8.624;2024-01-25T04:53:59;8.70;99.90
62555;DHT22;48610;52.144;8.624;2024-01-25T04:57:00;8.60;99.90
62555;DHT22;48610;52.144;8.624;2024-01-25T05:00:00;8.70;99.90
62555;DHT22;48610;52.144;8.624;2024-01-25T05:03:01;8.70;99.90
62555;DHT22;48610;52.144;8.624;2024-01-25T05:06:02;8.50;99.90
62555;DHT22;48610;52.144;8.624;2024-01-25T05:09:02;8.50;99.90
62555;DHT22;48610;52.144;8.624;2024-01-25T05:12:03;8.50;99.90
62555;DHT22;48610;52.144;8.624;2024-01-25T05:15:05;8.70;99.90
62555;DHT22;48610;52.144;8.624;2024-01-25T05:18:06;8.70;99.90
62555;DHT22;48610;52.144;8.624;2024-01-25T05:21:06;8.80;99.90
62555;DHT22;48610;52.144;8.624;2024-01-25T05:24:07;8.70;99.90
62555;DHT22;48610;52.144;8.624;2024-01-25T05:27:10;8.50;99.90
62555;DHT22;48610;52.144;8.624;2024-01-25T05:30:11;8.60;99.90
62555;DHT22;48610;52.144;8.624;2024-01-25T05:33:11;8.60;99.90
62555;DHT22;48610;52.144;8.624;2024-01-25T05:36:12;8.60;99.90
62555;DHT22;48610;52.144;8.624;2024-01-25T05:39:15;8.60;99.90
62555;DHT22;48610;52.144;8.624;2024-01-25T05:42:15;8.50;99.90
62555;DHT22;48610;52.144;8.624;2024-01-25T05:45:16;8.30;99.90
62555;DHT22;48610;52.144;8.624;2024-01-25T05:48:19;8.30;99.90
62555;DHT22;48610;52.144;8.624;2024-01-25T05:51:20;8.20;99.90
62555;DHT22;48610;52.144;8.624;2024-01-25T05:54:20;8.40;99.90
62555;DHT22;48610;52.144;8.624;2024-01-25T05:57:21;8.30;99.90
62555;DHT22;48610;52.144;8.624;2024-01-25T06:00:22;8.30;99.90
62555;DHT22;48610;52.144;8.624;2024-01-25T06:03:22;8.20;99.90
62555;DHT22;48610;52.144;8.624;2024-01-25T06:06:23;8.10;99.90
62555;DHT22;48610;52.144;8.624;2024-01-25T06:09:24;8.40;99.90
62555;DHT22;48610;52.144;8.624;2024-01-25T06:12:27;8.40;99.90
62555;DHT22;48610;52.144;8.624;2024-01-25T06:15:28;8.50;99.90
62555;DHT22;48610;52.144;8.624;2024-01-25T06:18:28;8.30;99.90
62555;DHT22;48610;52.144;8.624;2024-01-25T06:21:29;8.10;99.90
62555;DHT22;48610;52.144;8.624;2024-01-25T06:24:29;8.00;99.90
62555;DHT22;48610;52.144;8.624;2024-01-25T06:27:30;8.10;99.90
62555;DHT22;48610;52.144;8.624;2024-01-25T06:30:30;8.30;99.90
62555;DHT22;48610;52.144;8.624;2024-01-25T06:33:31;8.40;99.90
62555;DHT22;48610;52.144;8.624;2024-01-25T06:36:32;8.10;99.90
62555;DHT22;48610;52.144;8.624;2024-01-25T06:39:32;8.10;99.90
62555;DHT22;48610;52.144;8.624;2024-01-25T06:42:34;8.10;99.90
62555;DHT22;48610;52.144;8.624;2024-01-25T06:45:35;8.20;99.90
62555;DHT22;48610;52.144;8.624;2024-01-25T06:48:35;8.10;99.90
62555;DHT22;48610;52.144;8.624;2024-01-25T06:51:36;8.20;99.90
62555;DHT22;48610;52.144;8.624;2024-01-25T06:54:36;8.00;99.90
62555;DHT22;48610;52.144;8.624;2024-01-25T06:57:38;8.00;99.90
62555;DHT22;48610;52.144;8.624;2024-01-25T07:00:39;8.10;99.90
62555;DHT22;48610;52.144;8.624;2024-01-25T07:03:42;8.10;99.90
62555;DHT22;48610;52.144;8.624;2024-01-25T07:06:42;8.20;99.90
62555;DHT22;48610;52.144;8.624;2024-01-25T07:09:43;8.20;99.90
62555;DHT22;48610;52.144;8.624;2024-01-25T07:12:43;8.10;99.90
62555;DHT22;48610;52.144;8.624;2024-01-25T07:15:44;8.30;99.90
62555;DHT22;48610;52.144;8.624;2024-01-25T07:18:45;8.30;99.90
62555;DHT22;48610;52.144;8.624;2024-01-25T07:21:45;8.40;99.90
62555;DHT22;48610;52.144;8.624;2024-01-25T07:24:46;8.50;99.90
62555;DHT22;48610;52.144;8.624;2024-01-25T07:27:46;8.50;99.90
62555;DHT22;48610;52.144;8.624;2024-01-25T07:30:47;8.30;99.90
62555;DHT22;48610;52.144;8.624;2024-01-25T07:33:48;8.10;99.90
62555;DHT22;48610;52.144;8.624;2024-01-25T07:36:48;8.10;99.90
62555;DHT22;48610;52.144;8.624;2024-01-25T07:39:49;7.90;99.90
62555;DHT22;48610;52.144;8.624;2024-01-25T07:42:49;8.00;99.90
62555;DHT22;48610;52.144;8.624;2024-01-25T07:45:50;8.00;99.90
62555;DHT22;48610;52.144;8.624;2024-01-25T07:48:51;7.80;99.90
62555;DHT22;48610;52.144;8.624;2024-01-25T07:51:51;7.90;99.90
62555;DHT22;48610;52.144;8.624;2024-01-25T07:54:52;7.80;99.90
62555;DHT22;48610;52.144;8.624;2024-01-25T07:57:53;7.80;99.90
62555;DHT22;48610;52.144;8.624;2024-01-25T08:00:54;7.70;99.90
62555;DHT22;48610;52.144;8.624;2024-01-25T08:03:54;7.80;99.90
62555;DHT22;48610;52.144;8.624;2024-01-25T08:06:56;7.90;99.90
62555;DHT22;48610;52.144;8.624;2024-01-25T08:09:56;8.00;99.90
62555;DHT22;48610;52.144;8.624;2024-01-25T08:12:58;8.10;99.90
62555;DHT22;48610;52.144;8.624;2024-01-25T08:15:59;8.00;99.90
62555;DHT22;48610;52.144;8.624;2024-01-25T08:19:00;8.00;99.90
62555;DHT22;48610;52.144;8.624;2024-01-25T08:22:00;8.10;99.90
62555;DHT22;48610;52.144;8.624;2024-01-25T08:25:01;8.30;99.90
62555;DHT22;48610;52.144;8.624;2024-01-25T08:28:01;8.40;99.90
62555;DHT22;48610;52.144;8.624;2024-01-25T08:31:02;8.50;99.90
62555;DHT22;48610;52.144;8.624;2024-01-25T08:34:03;8.90;99.90
62555;DHT22;48610;52.144;8.624;2024-01-25T08:37:03;9.40;99.90
62555;DHT22;48610;52.144;8.624;2024-01-25T08:40:04;10.00;99.90
62555;DHT22;48610;52.144;8.624;2024-01-25T08:43:06;10.40;99.90
62555;DHT22;48610;52.144;8.624;2024-01-25T08:46:07;10.60;99.90
62555;DHT22;48610;52.144;8.624;2024-01-25T08:49:09;10.60;99.90
62555;DHT22;48610;52.144;8.624;2024-01-25T08:52:10;10.20;99.90
62555;DHT22;48610;52.144;8.624;2024-01-25T08:55:11;9.70;99.90
62555;DHT22;48610;52.144;8.624;2024-01-25T08:58:11;9.20;99.90
62555;DHT22;48610;52.144;8.624;2024-01-25T09:01:12;9.50;99.90
62555;DHT22;48610;52.144;8.624;2024-01-25T09:04:12;10.10;99.90
62555;DHT22;48610;52.144;8.624;2024-01-25T09:07:13;10.50;99.90
62555;DHT22;48610;52.144;8.624;2024-01-25T09:10:14;11.20;99.90
62555;DHT22;48610;52.144;8.624;2024-01-25T09:13:15;11.70;99.90
62555;DHT22;48610;52.144;8.624;2024-01-25T09:16:16;11.30;99.90
62555;DHT22;48610;52.144;8.624;2024-01-25T09:19:16;11.10;99.90
62555;DHT22;48610;52.144;8.624;2024-01-25T09:22:18;11.00;99.90
62555;DHT22;48610;52.144;8.624;2024-01-25T09:25:20;10.80;99.90
62555;DHT22;48610;52.144;8.624;2024-01-25T09:28:20;10.90;99.90
62555;DHT22;48610;52.144;8.624;2024-01-25T09:31:21;10.80;99.90
62555;DHT22;48610;52.144;8.624;2024-01-25T09:34:21;10.50;99.90
62555;DHT22;48610;52.144;8.624;2024-01-25T09:37:22;10.30;99.90
62555;DHT22;48610;52.144;8.624;2024-01-25T09:40:24;10.50;99.90
62555;DHT22;48610;52.144;8.624;2024-01-25T09:43:25;10.30;99.90
62555;DHT22;48610;52.144;8.624;2024-01-25T09:46:26;10.50;99.90
62555;DHT22;48610;52.144;8.624;2024-01-25T09:49:27;10.80;99.90
62555;DHT22;48610;52.144;8.624;2024-01-25T09:52:28;10.70;99.90
62555;DHT22;48610;52.144;8.624;2024-01-25T09:55:30;10.10;99.90
62555;DHT22;48610;52.144;8.624;2024-01-25T09:58:43;10.00;99.90
62555;DHT22;48610;52.144;8.624;2024-01-25T10:01:46;9.90;99.90
62555;DHT22;48610;52.144;8.624;2024-01-25T10:04:51;9.70;99.90
62555;DHT22;48610;52.144;8.624;2024-01-25T10:07:52;9.40;99.90
62555;DHT22;48610;52.144;8.624;2024-01-25T10:10:53;8.80;99.90
62555;DHT22;48610;52.144;8.624;2024-01-25T10:13:53;8.70;99.90
62555;DHT22;48610;52.144;8.624;2024-01-25T10:16:58;8.70;99.90
62555;DHT22;48610;52.144;8.624;2024-01-25T10:19:58;8.70;99.90
62555;DHT22;48610;52.144;8.624;2024-01-25T10:22:59;8.70;99.90
62555;DHT22;48610;52.144;8.624;2024-01-25T10:25:59;8.60;99.90
62555;DHT22;48610;52.144;8.624;2024-01-25T10:29:00;8.60;99.90
62555;DHT22;48610;52.144;8.624;2024-01-25T10:32:02;8.50;99.90
62555;DHT22;48610;52.144;8.624;2024-01-25T10:35:04;8.70;99.90
62555;DHT22;48610;52.144;8.624;2024-01-25T10:38:04;8.90;99.90
62555;DHT22;48610;52.144;8.624;2024-01-25T10:41:06;9.10;99.90
62555;DHT22;48610;52.144;8.624;2024-01-25T10:44:07;9.10;99.90
62555;DHT22;48610;52.144;8.624;2024-01-25T10:47:07;9.30;99.90
62555;DHT22;48610;52.144;8.624;2024-01-25T10:50:08;9.40;99.90
62555;DHT22;48610;52.144;8.624;2024-01-25T10:53:12;9.50;99.90
62555;DHT22;48610;52.144;8.624;2024-01-25T10:56:12;9.30;99.90
62555;DHT22;48610;52.144;8.624;2024-01-25T10:59:15;9.50;99.90
62555;DHT22;48610;52.144;8.624;2024-01-25T11:02:18;9.70;99.90
62555;DHT22;48610;52.144;8.624;2024-01-25T11:05:20;9.90;99.90
62555;DHT22;48610;52.144;8.624;2024-01-25T11:08:21;9.70;99.90
62555;DHT22;48610;52.144;8.624;2024-01-25T11:11:21;9.80;99.90
62555;DHT22;48610;52.144;8.624;2024-01-25T11:14:25;10.00;99.90
62555;DHT22;48610;52.144;8.624;2024-01-25T11:17:26;9.90;99.90
62555;DHT22;48610;52.144;8.624;2024-01-25T11:20:28;9.80;99.90
62555;DHT22;48610;52.144;8.624;2024-01-25T11:23:32;10.20;99.90
62555;DHT22;48610;52.144;8.624;2024-01-25T11:26:33;10.00;99.90
62555;DHT22;48610;52.144;8.624;2024-01-25T11:29:33;9.90;99.90
62555;DHT22;48610;52.144;8.624;2024-01-25T11:32:34;10.20;99.90
62555;DHT22;48610;52.144;8.624;2024-01-25T11:35:34;10.40;99.90
62555;DHT22;48610;52.144;8.624;2024-01-25T11:38:36;10.60;99.90
62555;DHT22;48610;52.144;8.624;2024-01-25T11:41:37;10.60;99.90
62555;DHT22;48610;52.144;8.624;2024-01-25T11:44:38;10.60;99.90
62555;DHT22;48610;52.144;8.624;2024-01-25T11:47:40;11.00;99.90
62555;DHT22;48610;52.144;8.624;2024-01-25T11:50:41;11.10;99.90
62555;DHT22;48610;52.144;8.624;2024-01-25T11:53:42;11.00;99.90
62555;DHT22;48610;52.144;8.624;2024-01-25T11:56:43;11.10;99.90
62555;DHT22;48610;52.144;8.624;2024-01-25T11:59:43;10.80;99.90
62555;DHT22;48610;52.144;8.624;2024-01-25T12:02:46;10.80;99.90
62555;DHT22;48610;52.144;8.624;2024-01-25T12:05:46;10.80;99.90
62555;DHT22;48610;52.144;8.624;2024-01-25T12:08:47;10.90;99.90
62555;DHT22;48610;52.144;8.624;2024-01-25T12:11:52;10.90;99.90
62555;DHT22;48610;52.144;8.624;2024-01-25T12:14:57;10.70;99.90
62555;DHT22;48610;52.144;8.624;2024-01-25T12:17:58;11.00;99.90
62555;DHT22;48610;52.144;8.624;2024-01-25T12:21:00;11.50;99.90
62555;DHT22;48610;52.144;8.624;2024-01-25T12:24:02;11.70;99.90
62555;DHT22;48610;52.144;8.624;2024-01-25T12:27:02;11.50;99.90
62555;DHT22;48610;52.144;8.624;2024-01-25T12:30:03;11.60;99.90
62555;DHT22;48610;52.144;8.624;2024-01-25T12:33:04;11.20;99.90
62555;DHT22;48610;52.144;8.624;2024-01-25T12:36:05;10.90;99.90
62555;DHT22;48610;52.144;8.624;2024-01-25T12:39:06;10.80;99.90
62555;DHT22;48610;52.144;8.624;2024-01-25T12:42:07;11.20;99.90
62555;DHT22;48610;52.144;8.624;2024-01-25T12:45:08;11.40;99.90
62555;DHT22;48610;52.144;8.624;2024-01-25T12:48:09;11.50;99.90
62555;DHT22;48610;52.144;8.624;2024-01-25T12:51:10;11.60;99.90
62555;DHT22;48610;52.144;8.624;2024-01-25T12:54:10;11.10;99.90
62555;DHT22;48610;52.144;8.624;2024-01-25T12:57:11;11.10;99.90
62555;DHT22;48610;52.144;8.624;2024-01-25T13:00:12;10.90;99.90
62555;DHT22;48610;52.144;8.624;2024-01-25T13:03:12;10.90;99.90
62555;DHT22;48610;52.144;8.624;2024-01-25T13:06:13;10.80;99.90
62555;DHT22;48610;52.144;8.624;2024-01-25T13:09:14;10.80;99.90
62555;DHT22;48610;52.144;8.624;2024-01-25T13:12:16;10.60;99.90
62555;DHT22;48610;52.144;8.624;2024-01-25T13:15:16;10.70;99.90
62555;DHT22;48610;52.144;8.624;2024-01-25T13:18:17;10.70;99.90
62555;DHT22;48610;52.144;8.624;2024-01-25T13:21:17;10.60;99.90
62555;DHT22;48610;52.144;8.624;2024-01-25T13:24:18;10.30;99.90
62555;DHT22;48610;52.144;8.624;2024-01-25T13:27:19;10.00;99.90
62555;DHT22;48610;52.144;8.624;2024-01-25T13:30:19;10.20;99.90
62555;DHT22;48610;52.144;8.624;2024-01-25T13:33:20;10.40;99.90
62555;DHT22;48610;52.144;8.624;2024-01-25T13:36:20;10.40;99.90
62555;DHT22;48610;52.144;8.624;2024-01-25T13:39:21;10.40;99.90
62555;DHT22;48610;52.144;8.624;2024-01-25T13:42:22;10.20;99.90
62555;DHT22;48610;52.144;8.624;2024-01-25T13:45:22;10.30;99.90
62555;DHT22;48610;52.144;8.624;2024-01-25T13:48:23;10.40;99.90
62555;DHT22;48610;52.144;8.624;2024-01-25T13:51:24;10.60;99.90
62555;DHT22;48610;52.144;8.624;2024-01-25T13:54:25;10.60;99.90
62555;DHT22;48610;52.144;8.624;2024-01-25T13:57:25;10.60;99.90
62555;DHT22;48610;52.144;8.624;2024-01-25T14:00:26;10.50;99.90
62555;DHT22;48610;52.144;8.624;2024-01-25T14:03:27;10.40;99.90
62555;DHT22;48610;52.144;8.624;2024-01-25T14:06:28;10.40;99.90
62555;DHT22;48610;52.144;8.624;2024-01-25T14:09:28;10.60;99.90
62555;DHT22;48610;52.144;8.624;2024-01-25T14:12:32;10.60;99.90
62555;DHT22;48610;52.144;8.624;2024-01-25T14:15:32;10.60;99.90
62555;DHT22;48610;52.144;8.624;2024-01-25T14:18:37;10.50;99.90
62555;DHT22;48610;52.144;8.624;2024-01-25T14:21:37;10.40;99.90
62555;DHT22;48610;52.144;8.624;2024-01-25T14:24:38;10.50;99.90
62555;DHT22;48610;52.144;8.624;2024-01-25T14:27:39;10.50;99.90
62555;DHT22;48610;52.144;8.624;2024-01-25T14:30:39;10.40;99.90
62555;DHT22;48610;52.144;8.624;2024-01-25T14:33:40;10.20;99.90
62555;DHT22;48610;52.144;8.624;2024-01-25T14:36:41;10.20;99.90
62555;DHT22;48610;52.144;8.624;2024-01-25T14:39:41;10.40;99.90
62555;DHT22;48610;52.144;8.624;2024-01-25T14:42:42;10.60;99.90
62555;DHT22;48610;52.144;8.624;2024-01-25T14:45:42;10.60;99.90
62555;DHT22;48610;52.144;8.624;2024-01-25T14:48:43;10.50;99.90
62555;DHT22;48610;52.144;8.624;2024-01-25T14:51:43;10.40;99.90
62555;DHT22;48610;52.144;8.624;2024-01-25T14:54:44;10.20;99.90
62555;DHT22;48610;52.144;8.624;2024-01-25T14:57:45;10.20;99.90
62555;DHT22;48610;52.144;8.624;2024-01-25T15:00:45;10.10;99.90
62555;DHT22;48610;52.144;8.624;2024-01-25T15:03:47;10.20;99.90
62555;DHT22;48610;52.144;8.624;2024-01-25T15:06:48;10.10;99.90
62555;DHT22;48610;52.144;8.624;2024-01-25T15:09:48;10.10;99.90
62555;DHT22;48610;52.144;8.624;2024-01-25T15:12:49;10.10;99.90
62555;DHT22;48610;52.144;8.624;2024-01-25T15:15:54;10.10;99.90
62555;DHT22;48610;52.144;8.624;2024-01-25T15:18:54;10.00;99.90
62555;DHT22;48610;52.144;8.624;2024-01-25T15:21:55;9.90;99.90
62555;DHT22;48610;52.144;8.624;2024-01-25T15:24:55;9.80;99.90
62555;DHT22;48610;52.144;8.624;2024-01-25T15:27:56;9.80;99.90
62555;DHT22;48610;52.144;8.624;2024-01-25T15:30:56;9.90;99.90
62555;DHT22;48610;52.144;8.624;2024-01-25T15:33:57;9.90;99.90
62555;DHT22;48610;52.144;8.624;2024-01-25T15:36:58;9.80;99.90
62555;DHT22;48610;52.144;8.624;2024-01-25T15:39:59;9.80;99.90
62555;DHT22;48610;52.144;8.624;2024-01-25T15:42:59;9.70;99.90
62555;DHT22;48610;52.144;8.624;2024-01-25T15:46:00;9.80;99.90
62555;DHT22;48610;52.144;8.624;2024-01-25T15:49:00;9.80;99.90
62555;DHT22;48610;52.144;8.624;2024-01-25T15:52:01;9.80;99.90
62555;DHT22;48610;52.144;8.624;2024-01-25T15:55:02;9.80;99.90
62555;DHT22;48610;52.144;8.624;2024-01-25T15:58:04;9.80;99.90
62555;DHT22;48610;52.144;8.624;2024-01-25T16:01:04;9.80;99.90
62555;DHT22;48610;52.144;8.624;2024-01-25T16:04:05;9.80;99.90
62555;DHT22;48610;52.144;8.624;2024-01-25T16:07:06;9.80;99.90
62555;DHT22;48610;52.144;8.624;2024-01-25T16:10:07;9.80;99.90
62555;DHT22;48610;52.144;8.624;2024-01-25T16:13:08;9.80;99.90
62555;DHT22;48610;52.144;8.624;2024-01-25T16:16:09;9.80;99.90
62555;DHT22;48610;52.144;8.624;2024-01-25T16:19:09;9.80;99.90
62555;DHT22;48610;52.144;8.624;2024-01-25T16:22:10;9.80;99.90
62555;DHT22;48610;52.144;8.624;2024-01-25T16:25:11;9.70;99.90
62555;DHT22;48610;52.144;8.624;2024-01-25T16:28:12;9.80;99.90
62555;DHT22;48610;52.144;8.624;2024-01-25T16:31:12;9.80;99.90
62555;DHT22;48610;52.144;8.624;2024-01-25T16:34:13;9.80;99.90
62555;DHT22;48610;52.144;8.624;2024-01-25T16:37:13;9.60;99.90
62555;DHT22;48610;52.144;8.624;2024-01-25T16:40:14;9.60;99.90
62555;DHT22;48610;52.144;8.624;2024-01-25T16:43:14;9.60;99.90
62555;DHT22;48610;52.144;8.624;2024-01-25T16:46:15;9.40;99.90
62555;DHT22;48610;52.144;8.624;2024-01-25T16:49:16;9.40;99.90
62555;DHT22;48610;52.144;8.624;2024-01-25T16:52:16;9.20;99.90
62555;DHT22;48610;52.144;8.624;2024-01-25T16:55:17;9.10;99.90
62555;DHT22;48610;52.144;8.624;2024-01-25T16:58:17;8.90;99.90
62555;DHT22;48610;52.144;8.624;2024-01-25T17:01:18;8.80;99.90
62555;DHT22;48610;52.144;8.624;2024-01-25T17:04:18;8.80;99.90
62555;DHT22;48610;52.144;8.624;2024-01-25T17:07:19;8.60;99.90
62555;DHT22;48610;52.144;8.624;2024-01-25T17:10:20;8.50;99.90
62555;DHT22;48610;52.144;8.624;2024-01-25T17:13:20;8.50;99.90
62555;DHT22;48610;52.144;8.624;2024-01-25T17:16:21;8.50;99.90
62555;DHT22;48610;52.144;8.624;2024-01-25T17:19:21;8.60;99.90
62555;DHT22;48610;52.144;8.624;2024-01-25T17:22:22;8.80;99.90
62555;DHT22;48610;52.144;8.624;2024-01-25T17:25:23;8.80;99.90
62555;DHT22;48610;52.144;8.624;2024-01-25T17:28:24;8.80;99.90
62555;DHT22;48610;52.144;8.624;2024-01-25T17:31:24;8.80;99.90
62555;DHT22;48610;52.144;8.624;2024-01-25T17:34:25;8.70;99.90
62555;DHT22;48610;52.144;8.624;2024-01-25T17:37:25;8.70;99.90
62555;DHT22;48610;52.144;8.624;2024-01-25T17:40:26;8.60;99.90
62555;DHT22;48610;52.144;8.624;2024-01-25T17:43:27;8.50;99.90
62555;DHT22;48610;52.144;8.624;2024-01-25T17:46:27;8.50;99.90
62555;DHT22;48610;52.144;8.624;2024-01-25T17:49:28;8.50;99.90
62555;DHT22;48610;52.144;8.624;2024-01-25T17:52:28;8.50;99.90
62555;DHT22;48610;52.144;8.624;2024-01-25T17:55:29;8.50;99.90
62555;DHT22;48610;52.144;8.624;2024-01-25T17:58:30;8.50;99.90
62555;DHT22;48610;52.144;8.624;2024-01-25T18:01:30;8.40;99.90
62555;DHT22;48610;52.144;8.624;2024-01-25T18:04:31;8.50;99.90
62555;DHT22;48610;52.144;8.624;2024-01-25T18:07:31;8.50;99.90
62555;DHT22;48610;52.144;8.624;2024-01-25T18:10:32;8.50;99.90
62555;DHT22;48610;52.144;8.624;2024-01-25T18:13:32;8.50;99.90
62555;DHT22;48610;52.144;8.624;2024-01-25T18:16:33;8.50;99.90
62555;DHT22;48610;52.144;8.624;2024-01-25T18:19:33;8.60;99.90
62555;DHT22;48610;52.144;8.624;2024-01-25T18:22:35;8.60;99.90
62555;DHT22;48610;52.144;8.624;2024-01-25T18:25:37;8.60;99.90
62555;DHT22;48610;52.144;8.624;2024-01-25T18:28:38;8.40;99.90
62555;DHT22;48610;52.144;8.624;2024-01-25T18:31:39;8.30;99.90
62555;DHT22;48610;52.144;8.624;2024-01-25T18:34:39;8.20;99.90
62555;DHT22;48610;52.144;8.624;2024-01-25T18:37:40;8.20;99.90
62555;DHT22;48610;52.144;8.624;2024-01-25T18:40:40;8.20;99.90
62555;DHT22;48610;52.144;8.624;2024-01-25T18:43:41;8.10;99.90
62555;DHT22;48610;52.144;8.624;2024-01-25T18:46:42;8.10;99.90
62555;DHT22;48610;52.144;8.624;2024-01-25T18:49:42;8.10;99.90
62555;DHT22;48610;52.144;8.624;2024-01-25T18:52:43;8.10;99.90
62555;DHT22;48610;52.144;8.624;2024-01-25T18:55:43;8.10;99.90
62555;DHT22;48610;52.144;8.624;2024-01-25T18:58:44;8.10;99.90
62555;DHT22;48610;52.144;8.624;2024-01-25T19:01:45;8.10;99.90
62555;DHT22;48610;52.144;8.624;2024-01-25T19:04:46;8.00;99.90
62555;DHT22;48610;52.144;8.624;2024-01-25T19:07:49;7.90;99.90
62555;DHT22;48610;52.144;8.624;2024-01-25T19:10:50;8.00;99.90
62555;DHT22;48610;52.144;8.624;2024-01-25T19:13:51;8.00;99.90
62555;DHT22;48610;52.144;8.624;2024-01-25T19:16:51;7.90;99.90